sensor_id;sensor_type;location;lat;lon;timestamp;P1;durP1;ratioP1;P2;durP2;ratioP2
7545;SDS011;3814;51.454;12.616;2022-10-16T00:01:54;2.03;;;1.30;;
7545;SDS011;3814;51.454;12.616;2022-10-16T00:04:19;2.00;;;1.25;;
7545;SDS011;3814;51.454;12.616;2022-10-16T00:06:44;1.98;;;1.33;;
7545;SDS011;3814;51.454;12.616;2022-10-16T00:09:10;3.38;;;1.30;;
7545;SDS011;3814;51.454;12.616;2022-10-16T00:11:36;2.20;;;1.20;;
7545;SDS011;3814;51.454;12.616;2022-10-16T00:14:03;3.55;;;1.48;;
7545;SDS011;3814;51.454;12.616;2022-10-16T00:16:30;1.85;;;1.20;;
7545;SDS011;3814;51.454;12.616;2022-10-16T00:18:56;2.58;;;1.20;;
7545;SDS011;3814;51.454;12.616;2022-10-16T00:21:22;1.67;;;1.10;;
7545;SDS011;3814;51.454;12.616;2022-10-16T00:23:50;1.98;;;1.20;;
7545;SDS011;3814;51.454;12.616;2022-10-16T00:26:20;1.60;;;0.90;;
7545;SDS011;3814;51.454;12.616;2022-10-16T00:28:46;1.20;;;0.70;;
7545;SDS011;3814;51.454;12.616;2022-10-16T00:31:13;1.08;;;0.82;;
7545;SDS011;3814;51.454;12.616;2022-10-16T00:33:39;1.98;;;0.90;;
7545;SDS011;3814;51.454;12.616;2022-10-16T00:36:05;0.90;;;0.80;;
7545;SDS011;3814;51.454;12.616;2022-10-16T00:38:32;1.35;;;0.90;;
7545;SDS011;3814;51.454;12.616;2022-10-16T00:40:57;0.85;;;0.73;;
7545;SDS011;3814;51.454;12.616;2022-10-16T00:46:01;1.20;;;0.90;;
7545;SDS011;3814;51.454;12.616;2022-10-16T00:48:27;1.00;;;0.77;;
7545;SDS011;3814;51.454;12.616;2022-10-16T00:50:53;0.88;;;0.70;;
7545;SDS011;3814;51.454;12.616;2022-10-16T00:53:18;1.25;;;0.80;;
7545;SDS011;3814;51.454;12.616;2022-10-16T00:55:44;1.30;;;0.80;;
7545;SDS011;3814;51.454;12.616;2022-10-16T00:58:10;1.70;;;0.80;;
7545;SDS011;3814;51.454;12.616;2022-10-16T01:00:36;1.25;;;0.80;;
7545;SDS011;3814;51.454;12.616;2022-10-16T01:03:02;1.20;;;0.82;;
7545;SDS011;3814;51.454;12.616;2022-10-16T01:05:37;0.70;;;0.70;;
7545;SDS011;3814;51.454;12.616;2022-10-16T01:10:57;1.10;;;0.90;;
7545;SDS011;3814;51.454;12.616;2022-10-16T01:13:26;1.20;;;0.88;;
7545;SDS011;3814;51.454;12.616;2022-10-16T01:16:00;1.05;;;0.73;;
7545;SDS011;3814;51.454;12.616;2022-10-16T01:21:31;1.30;;;1.00;;
7545;SDS011;3814;51.454;12.616;2022-10-16T01:32:16;2.22;;;0.82;;
7545;SDS011;3814;51.454;12.616;2022-10-16T01:34:52;1.00;;;0.77;;
7545;SDS011;3814;51.454;12.616;2022-10-16T01:40:16;1.00;;;0.63;;
7545;SDS011;3814;51.454;12.616;2022-10-16T01:42:45;2.08;;;0.70;;
7545;SDS011;3814;51.454;12.616;2022-10-16T01:45:13;1.00;;;0.82;;
7545;SDS011;3814;51.454;12.616;2022-10-16T01:47:42;0.88;;;0.65;;
7545;SDS011;3814;51.454;12.616;2022-10-16T01:50:09;0.90;;;0.70;;
7545;SDS011;3814;51.454;12.616;2022-10-16T01:52:36;1.30;;;0.82;;
7545;SDS011;3814;51.454;12.616;2022-10-16T01:55:05;1.30;;;0.75;;
7545;SDS011;3814;51.454;12.616;2022-10-16T01:57:33;1.30;;;0.90;;
7545;SDS011;3814;51.454;12.616;2022-10-16T02:00:05;2.38;;;0.93;;
7545;SDS011;3814;51.454;12.616;2022-10-16T02:02:36;1.38;;;0.98;;
7545;SDS011;3814;51.454;12.616;2022-10-16T02:05:05;1.67;;;0.88;;
7545;SDS011;3814;51.454;12.616;2022-10-16T02:07:36;1.23;;;0.90;;
7545;SDS011;3814;51.454;12.616;2022-10-16T02:10:01;1.75;;;1.00;;
7545;SDS011;3814;51.454;12.616;2022-10-16T02:12:33;1.10;;;0.80;;
7545;SDS011;3814;51.454;12.616;2022-10-16T02:15:00;1.45;;;0.85;;
7545;SDS011;3814;51.454;12.616;2022-10-16T02:17:26;1.10;;;0.80;;
7545;SDS011;3814;51.454;12.616;2022-10-16T02:19:52;1.30;;;0.80;;
7545;SDS011;3814;51.454;12.616;2022-10-16T02:22:33;1.00;;;0.80;;
7545;SDS011;3814;51.454;12.616;2022-10-16T02:25:05;1.02;;;0.90;;
7545;SDS011;3814;51.454;12.616;2022-10-16T02:32:50;1.27;;;0.90;;
7545;SDS011;3814;51.454;12.616;2022-10-16T02:35:17;1.05;;;0.80;;
7545;SDS011;3814;51.454;12.616;2022-10-16T02:37:44;1.60;;;0.88;;
7545;SDS011;3814;51.454;12.616;2022-10-16T02:40:10;3.15;;;1.00;;
7545;SDS011;3814;51.454;12.616;2022-10-16T02:42:37;1.40;;;0.90;;
7545;SDS011;3814;51.454;12.616;2022-10-16T02:45:04;1.00;;;0.77;;
7545;SDS011;3814;51.454;12.616;2022-10-16T02:47:34;0.90;;;0.73;;
7545;SDS011;3814;51.454;12.616;2022-10-16T02:49:59;1.95;;;0.90;;
7545;SDS011;3814;51.454;12.616;2022-10-16T02:52:24;3.03;;;0.88;;
7545;SDS011;3814;51.454;12.616;2022-10-16T02:54:50;2.25;;;1.00;;
7545;SDS011;3814;51.454;12.616;2022-10-16T02:57:15;1.20;;;0.80;;
7545;SDS011;3814;51.454;12.616;2022-10-16T02:59:40;1.77;;;0.90;;
7545;SDS011;3814;51.454;12.616;2022-10-16T03:02:06;2.22;;;0.75;;
7545;SDS011;3814;51.454;12.616;2022-10-16T03:04:31;1.25;;;0.80;;
7545;SDS011;3814;51.454;12.616;2022-10-16T03:06:57;2.20;;;0.90;;
7545;SDS011;3814;51.454;12.616;2022-10-16T03:09:22;1.35;;;0.90;;
7545;SDS011;3814;51.454;12.616;2022-10-16T03:11:47;2.03;;;0.95;;
7545;SDS011;3814;51.454;12.616;2022-10-16T03:14:13;2.60;;;0.80;;
7545;SDS011;3814;51.454;12.616;2022-10-16T03:16:38;1.13;;;0.68;;
7545;SDS011;3814;51.454;12.616;2022-10-16T03:19:04;1.10;;;0.80;;
7545;SDS011;3814;51.454;12.616;2022-10-16T03:21:29;1.33;;;0.77;;
7545;SDS011;3814;51.454;12.616;2022-10-16T03:23:55;0.85;;;0.70;;
7545;SDS011;3814;51.454;12.616;2022-10-16T03:26:20;1.23;;;0.82;;
7545;SDS011;3814;51.454;12.616;2022-10-16T03:28:45;1.52;;;0.90;;
7545;SDS011;3814;51.454;12.616;2022-10-16T03:31:11;1.10;;;0.90;;
7545;SDS011;3814;51.454;12.616;2022-10-16T03:33:36;1.38;;;0.90;;
7545;SDS011;3814;51.454;12.616;2022-10-16T03:36:02;1.20;;;0.80;;
7545;SDS011;3814;51.454;12.616;2022-10-16T03:38:27;1.15;;;0.82;;
7545;SDS011;3814;51.454;12.616;2022-10-16T03:40:53;1.50;;;1.00;;
7545;SDS011;3814;51.454;12.616;2022-10-16T03:43:18;1.17;;;0.88;;
7545;SDS011;3814;51.454;12.616;2022-10-16T03:45:44;1.30;;;0.90;;
7545;SDS011;3814;51.454;12.616;2022-10-16T03:48:09;1.42;;;0.82;;
7545;SDS011;3814;51.454;12.616;2022-10-16T03:50:34;0.98;;;0.82;;
7545;SDS011;3814;51.454;12.616;2022-10-16T03:53:00;1.27;;;0.90;;
7545;SDS011;3814;51.454;12.616;2022-10-16T03:55:25;1.23;;;0.90;;
7545;SDS011;3814;51.454;12.616;2022-10-16T03:57:51;1.55;;;0.90;;
7545;SDS011;3814;51.454;12.616;2022-10-16T04:00:16;1.50;;;0.93;;
7545;SDS011;3814;51.454;12.616;2022-10-16T04:02:42;1.13;;;0.93;;
7545;SDS011;3814;51.454;12.616;2022-10-16T04:05:07;2.08;;;1.02;;
7545;SDS011;3814;51.454;12.616;2022-10-16T04:07:33;1.85;;;1.10;;
7545;SDS011;3814;51.454;12.616;2022-10-16T04:09:58;1.42;;;1.00;;
7545;SDS011;3814;51.454;12.616;2022-10-16T04:12:24;1.67;;;0.90;;
7545;SDS011;3814;51.454;12.616;2022-10-16T04:14:50;1.20;;;0.93;;
7545;SDS011;3814;51.454;12.616;2022-10-16T04:17:15;1.25;;;0.90;;
7545;SDS011;3814;51.454;12.616;2022-10-16T04:19:41;1.55;;;0.95;;
7545;SDS011;3814;51.454;12.616;2022-10-16T04:22:06;1.20;;;0.90;;
7545;SDS011;3814;51.454;12.616;2022-10-16T04:24:32;1.33;;;1.00;;
7545;SDS011;3814;51.454;12.616;2022-10-16T04:26:57;1.60;;;1.00;;
7545;SDS011;3814;51.454;12.616;2022-10-16T04:29:23;1.50;;;1.00;;
7545;SDS011;3814;51.454;12.616;2022-10-16T04:31:48;1.50;;;1.00;;
7545;SDS011;3814;51.454;12.616;2022-10-16T04:34:14;1.25;;;1.00;;
7545;SDS011;3814;51.454;12.616;2022-10-16T04:36:39;2.00;;;1.00;;
7545;SDS011;3814;51.454;12.616;2022-10-16T04:39:05;1.33;;;0.93;;
7545;SDS011;3814;51.454;12.616;2022-10-16T04:41:30;1.58;;;1.00;;
7545;SDS011;3814;51.454;12.616;2022-10-16T04:43:56;1.60;;;1.00;;
7545;SDS011;3814;51.454;12.616;2022-10-16T04:46:21;1.20;;;1.00;;
7545;SDS011;3814;51.454;12.616;2022-10-16T04:48:47;1.35;;;0.93;;
7545;SDS011;3814;51.454;12.616;2022-10-16T04:51:12;1.38;;;1.00;;
7545;SDS011;3814;51.454;12.616;2022-10-16T04:53:38;1.90;;;1.10;;
7545;SDS011;3814;51.454;12.616;2022-10-16T04:56:03;1.15;;;1.00;;
7545;SDS011;3814;51.454;12.616;2022-10-16T04:58:29;1.33;;;1.10;;
7545;SDS011;3814;51.454;12.616;2022-10-16T05:00:54;3.35;;;1.15;;
7545;SDS011;3814;51.454;12.616;2022-10-16T05:03:20;1.60;;;1.00;;
7545;SDS011;3814;51.454;12.616;2022-10-16T05:05:46;2.10;;;1.10;;
7545;SDS011;3814;51.454;12.616;2022-10-16T05:08:12;2.50;;;1.10;;
7545;SDS011;3814;51.454;12.616;2022-10-16T05:10:38;1.48;;;1.02;;
7545;SDS011;3814;51.454;12.616;2022-10-16T05:13:04;1.50;;;1.02;;
7545;SDS011;3814;51.454;12.616;2022-10-16T05:15:29;1.38;;;1.00;;
7545;SDS011;3814;51.454;12.616;2022-10-16T05:17:55;1.30;;;1.00;;
7545;SDS011;3814;51.454;12.616;2022-10-16T05:20:21;3.47;;;1.30;;
7545;SDS011;3814;51.454;12.616;2022-10-16T05:22:47;1.10;;;0.90;;
7545;SDS011;3814;51.454;12.616;2022-10-16T05:25:13;1.73;;;1.17;;
7545;SDS011;3814;51.454;12.616;2022-10-16T05:27:38;2.80;;;1.10;;
7545;SDS011;3814;51.454;12.616;2022-10-16T05:30:04;1.60;;;1.13;;
7545;SDS011;3814;51.454;12.616;2022-10-16T05:32:30;1.42;;;1.00;;
7545;SDS011;3814;51.454;12.616;2022-10-16T05:34:55;1.60;;;1.13;;
7545;SDS011;3814;51.454;12.616;2022-10-16T05:37:21;1.38;;;1.15;;
7545;SDS011;3814;51.454;12.616;2022-10-16T05:39:46;1.83;;;1.10;;
7545;SDS011;3814;51.454;12.616;2022-10-16T05:42:12;1.50;;;1.15;;
7545;SDS011;3814;51.454;12.616;2022-10-16T05:44:37;2.88;;;1.27;;
7545;SDS011;3814;51.454;12.616;2022-10-16T05:47:03;1.65;;;1.13;;
7545;SDS011;3814;51.454;12.616;2022-10-16T05:49:28;1.42;;;1.23;;
7545;SDS011;3814;51.454;12.616;2022-10-16T05:51:54;1.67;;;1.23;;
7545;SDS011;3814;51.454;12.616;2022-10-16T05:54:19;2.13;;;1.20;;
7545;SDS011;3814;51.454;12.616;2022-10-16T05:56:45;1.48;;;1.08;;
7545;SDS011;3814;51.454;12.616;2022-10-16T05:59:10;1.75;;;1.20;;
7545;SDS011;3814;51.454;12.616;2022-10-16T06:01:36;1.58;;;1.02;;
7545;SDS011;3814;51.454;12.616;2022-10-16T06:04:01;2.75;;;1.30;;
7545;SDS011;3814;51.454;12.616;2022-10-16T06:06:27;2.10;;;1.25;;
7545;SDS011;3814;51.454;12.616;2022-10-16T06:08:53;1.60;;;1.23;;
7545;SDS011;3814;51.454;12.616;2022-10-16T06:11:24;1.85;;;1.30;;
7545;SDS011;3814;51.454;12.616;2022-10-16T06:13:51;1.60;;;1.30;;
7545;SDS011;3814;51.454;12.616;2022-10-16T06:16:18;1.83;;;1.20;;
7545;SDS011;3814;51.454;12.616;2022-10-16T06:18:43;1.77;;;1.13;;
7545;SDS011;3814;51.454;12.616;2022-10-16T06:21:13;1.60;;;1.23;;
7545;SDS011;3814;51.454;12.616;2022-10-16T06:23:41;2.05;;;1.20;;
7545;SDS011;3814;51.454;12.616;2022-10-16T06:26:07;2.08;;;1.23;;
7545;SDS011;3814;51.454;12.616;2022-10-16T06:28:34;4.45;;;1.38;;
7545;SDS011;3814;51.454;12.616;2022-10-16T06:30:59;3.53;;;1.20;;
7545;SDS011;3814;51.454;12.616;2022-10-16T06:33:25;2.00;;;1.30;;
7545;SDS011;3814;51.454;12.616;2022-10-16T06:35:51;1.95;;;1.20;;
7545;SDS011;3814;51.454;12.616;2022-10-16T06:38:16;1.67;;;1.17;;
7545;SDS011;3814;51.454;12.616;2022-10-16T06:40:41;1.92;;;1.25;;
7545;SDS011;3814;51.454;12.616;2022-10-16T06:43:07;1.70;;;1.30;;
7545;SDS011;3814;51.454;12.616;2022-10-16T06:45:32;1.60;;;1.10;;
7545;SDS011;3814;51.454;12.616;2022-10-16T06:47:57;2.40;;;1.38;;
7545;SDS011;3814;51.454;12.616;2022-10-16T06:50:23;1.50;;;1.20;;
7545;SDS011;3814;51.454;12.616;2022-10-16T06:52:48;1.90;;;1.15;;
7545;SDS011;3814;51.454;12.616;2022-10-16T06:55:14;2.03;;;1.10;;
7545;SDS011;3814;51.454;12.616;2022-10-16T06:57:40;2.03;;;1.17;;
7545;SDS011;3814;51.454;12.616;2022-10-16T07:00:05;1.25;;;1.00;;
7545;SDS011;3814;51.454;12.616;2022-10-16T07:02:31;1.95;;;1.20;;
7545;SDS011;3814;51.454;12.616;2022-10-16T07:04:56;2.17;;;1.13;;
7545;SDS011;3814;51.454;12.616;2022-10-16T07:07:22;1.60;;;1.17;;
7545;SDS011;3814;51.454;12.616;2022-10-16T07:09:49;1.55;;;1.02;;
7545;SDS011;3814;51.454;12.616;2022-10-16T07:12:15;1.70;;;1.10;;
7545;SDS011;3814;51.454;12.616;2022-10-16T07:14:40;1.42;;;1.13;;
7545;SDS011;3814;51.454;12.616;2022-10-16T07:17:05;2.85;;;1.17;;
7545;SDS011;3814;51.454;12.616;2022-10-16T07:19:31;1.80;;;1.10;;
7545;SDS011;3814;51.454;12.616;2022-10-16T07:21:56;2.28;;;1.05;;
7545;SDS011;3814;51.454;12.616;2022-10-16T07:24:22;2.67;;;1.20;;
7545;SDS011;3814;51.454;12.616;2022-10-16T07:26:47;2.05;;;1.02;;
7545;SDS011;3814;51.454;12.616;2022-10-16T07:29:13;4.15;;;1.20;;
7545;SDS011;3814;51.454;12.616;2022-10-16T07:31:40;2.90;;;1.20;;
7545;SDS011;3814;51.454;12.616;2022-10-16T07:34:06;3.83;;;1.00;;
7545;SDS011;3814;51.454;12.616;2022-10-16T07:36:31;2.05;;;1.20;;
7545;SDS011;3814;51.454;12.616;2022-10-16T07:38:57;1.58;;;1.08;;
7545;SDS011;3814;51.454;12.616;2022-10-16T07:41:22;2.88;;;1.02;;
7545;SDS011;3814;51.454;12.616;2022-10-16T07:43:48;1.98;;;1.10;;
7545;SDS011;3814;51.454;12.616;2022-10-16T07:46:15;2.28;;;1.00;;
7545;SDS011;3814;51.454;12.616;2022-10-16T07:48:41;2.42;;;1.00;;
7545;SDS011;3814;51.454;12.616;2022-10-16T07:51:10;1.17;;;0.85;;
7545;SDS011;3814;51.454;12.616;2022-10-16T07:53:36;1.35;;;1.00;;
7545;SDS011;3814;51.454;12.616;2022-10-16T07:56:03;1.98;;;0.90;;
7545;SDS011;3814;51.454;12.616;2022-10-16T07:58:29;1.13;;;1.00;;
7545;SDS011;3814;51.454;12.616;2022-10-16T08:00:55;2.03;;;1.13;;
7545;SDS011;3814;51.454;12.616;2022-10-16T08:03:21;1.10;;;0.80;;
7545;SDS011;3814;51.454;12.616;2022-10-16T08:05:46;1.45;;;1.05;;
7545;SDS011;3814;51.454;12.616;2022-10-16T08:08:13;0.95;;;0.80;;
7545;SDS011;3814;51.454;12.616;2022-10-16T08:10:38;1.45;;;1.05;;
7545;SDS011;3814;51.454;12.616;2022-10-16T08:13:04;2.55;;;0.82;;
7545;SDS011;3814;51.454;12.616;2022-10-16T08:15:29;1.90;;;0.90;;
7545;SDS011;3814;51.454;12.616;2022-10-16T08:17:58;1.48;;;0.90;;
7545;SDS011;3814;51.454;12.616;2022-10-16T08:20:25;1.65;;;1.02;;
7545;SDS011;3814;51.454;12.616;2022-10-16T08:22:51;2.88;;;1.00;;
7545;SDS011;3814;51.454;12.616;2022-10-16T08:25:16;2.15;;;1.08;;
7545;SDS011;3814;51.454;12.616;2022-10-16T08:27:42;1.33;;;0.93;;
7545;SDS011;3814;51.454;12.616;2022-10-16T08:30:07;2.15;;;1.00;;
7545;SDS011;3814;51.454;12.616;2022-10-16T08:32:33;1.75;;;0.95;;
7545;SDS011;3814;51.454;12.616;2022-10-16T08:34:59;2.38;;;0.80;;
7545;SDS011;3814;51.454;12.616;2022-10-16T08:37:24;1.10;;;0.77;;
7545;SDS011;3814;51.454;12.616;2022-10-16T08:39:56;1.30;;;0.65;;
7545;SDS011;3814;51.454;12.616;2022-10-16T08:42:25;2.35;;;0.63;;
7545;SDS011;3814;51.454;12.616;2022-10-16T08:45:51;0.70;;;0.50;;
7545;SDS011;3814;51.454;12.616;2022-10-16T08:48:27;1.35;;;0.50;;
7545;SDS011;3814;51.454;12.616;2022-10-16T08:50:55;1.50;;;0.63;;
7545;SDS011;3814;51.454;12.616;2022-10-16T08:53:23;1.70;;;0.60;;
7545;SDS011;3814;51.454;12.616;2022-10-16T08:55:51;2.15;;;0.80;;
7545;SDS011;3814;51.454;12.616;2022-10-16T08:58:28;2.67;;;0.70;;
7545;SDS011;3814;51.454;12.616;2022-10-16T09:00:58;1.48;;;0.70;;
7545;SDS011;3814;51.454;12.616;2022-10-16T09:09:08;1.35;;;0.40;;
7545;SDS011;3814;51.454;12.616;2022-10-16T09:11:53;1.48;;;0.60;;
7545;SDS011;3814;51.454;12.616;2022-10-16T09:14:32;1.35;;;0.50;;
7545;SDS011;3814;51.454;12.616;2022-10-16T09:19:39;0.55;;;0.45;;
7545;SDS011;3814;51.454;12.616;2022-10-16T09:22:10;0.88;;;0.55;;
7545;SDS011;3814;51.454;12.616;2022-10-16T09:24:39;0.70;;;0.70;;
7545;SDS011;3814;51.454;12.616;2022-10-16T09:27:04;0.40;;;0.40;;
7545;SDS011;3814;51.454;12.616;2022-10-16T09:29:29;1.08;;;0.50;;
7545;SDS011;3814;51.454;12.616;2022-10-16T09:31:55;1.20;;;0.50;;
7545;SDS011;3814;51.454;12.616;2022-10-16T09:34:30;1.10;;;0.43;;
7545;SDS011;3814;51.454;12.616;2022-10-16T09:36:57;1.10;;;0.60;;
7545;SDS011;3814;51.454;12.616;2022-10-16T09:39:24;0.70;;;0.50;;
7545;SDS011;3814;51.454;12.616;2022-10-16T09:41:49;1.23;;;0.60;;
7545;SDS011;3814;51.454;12.616;2022-10-16T09:44:23;0.93;;;0.45;;
7545;SDS011;3814;51.454;12.616;2022-10-16T09:47:00;1.10;;;0.40;;
7545;SDS011;3814;51.454;12.616;2022-10-16T09:49:30;3.00;;;0.50;;
7545;SDS011;3814;51.454;12.616;2022-10-16T09:52:12;1.00;;;0.57;;
7545;SDS011;3814;51.454;12.616;2022-10-16T09:54:48;0.82;;;0.50;;
7545;SDS011;3814;51.454;12.616;2022-10-16T09:57:14;1.42;;;0.60;;
7545;SDS011;3814;51.454;12.616;2022-10-16T09:59:53;1.00;;;0.73;;
7545;SDS011;3814;51.454;12.616;2022-10-16T10:02:23;0.75;;;0.60;;
7545;SDS011;3814;51.454;12.616;2022-10-16T10:04:55;0.57;;;0.50;;
7545;SDS011;3814;51.454;12.616;2022-10-16T10:07:25;1.10;;;0.70;;
7545;SDS011;3814;51.454;12.616;2022-10-16T10:09:53;0.95;;;0.60;;
7545;SDS011;3814;51.454;12.616;2022-10-16T10:12:21;1.05;;;0.50;;
7545;SDS011;3814;51.454;12.616;2022-10-16T10:14:48;2.17;;;0.60;;
7545;SDS011;3814;51.454;12.616;2022-10-16T10:17:17;0.50;;;0.50;;
7545;SDS011;3814;51.454;12.616;2022-10-16T10:19:53;0.90;;;0.55;;
7545;SDS011;3814;51.454;12.616;2022-10-16T10:22:42;1.55;;;0.60;;
7545;SDS011;3814;51.454;12.616;2022-10-16T10:33:03;0.82;;;0.63;;
7545;SDS011;3814;51.454;12.616;2022-10-16T10:38:26;1.15;;;0.60;;
7545;SDS011;3814;51.454;12.616;2022-10-16T10:41:19;0.88;;;0.60;;
7545;SDS011;3814;51.454;12.616;2022-10-16T10:43:56;0.77;;;0.60;;
7545;SDS011;3814;51.454;12.616;2022-10-16T10:46:41;1.08;;;0.70;;
7545;SDS011;3814;51.454;12.616;2022-10-16T10:54:46;0.77;;;0.68;;
7545;SDS011;3814;51.454;12.616;2022-10-16T10:57:38;1.42;;;0.82;;
7545;SDS011;3814;51.454;12.616;2022-10-16T11:00:28;1.52;;;0.70;;
7545;SDS011;3814;51.454;12.616;2022-10-16T11:05:45;1.20;;;0.80;;
7545;SDS011;3814;51.454;12.616;2022-10-16T11:08:20;0.95;;;0.80;;
7545;SDS011;3814;51.454;12.616;2022-10-16T11:13:35;1.60;;;0.90;;
7545;SDS011;3814;51.454;12.616;2022-10-16T11:16:20;1.33;;;0.70;;
7545;SDS011;3814;51.454;12.616;2022-10-16T11:21:21;1.90;;;0.80;;
7545;SDS011;3814;51.454;12.616;2022-10-16T11:23:56;0.85;;;0.52;;
7545;SDS011;3814;51.454;12.616;2022-10-16T11:26:28;1.13;;;0.70;;
7545;SDS011;3814;51.454;12.616;2022-10-16T11:28:56;1.27;;;0.70;;
7545;SDS011;3814;51.454;12.616;2022-10-16T11:31:24;1.60;;;0.77;;
7545;SDS011;3814;51.454;12.616;2022-10-16T11:33:56;1.00;;;0.80;;
7545;SDS011;3814;51.454;12.616;2022-10-16T11:36:29;2.85;;;0.80;;
7545;SDS011;3814;51.454;12.616;2022-10-16T11:44:06;0.68;;;0.60;;
7545;SDS011;3814;51.454;12.616;2022-10-16T11:46:39;0.73;;;0.60;;
7545;SDS011;3814;51.454;12.616;2022-10-16T11:49:11;0.63;;;0.63;;
7545;SDS011;3814;51.454;12.616;2022-10-16T11:51:43;1.00;;;0.60;;
7545;SDS011;3814;51.454;12.616;2022-10-16T11:56:51;0.80;;;0.60;;
7545;SDS011;3814;51.454;12.616;2022-10-16T12:04:49;0.70;;;0.70;;
7545;SDS011;3814;51.454;12.616;2022-10-16T12:07:22;1.10;;;0.60;;
7545;SDS011;3814;51.454;12.616;2022-10-16T12:09:52;1.58;;;0.70;;
7545;SDS011;3814;51.454;12.616;2022-10-16T12:12:27;1.10;;;0.80;;
7545;SDS011;3814;51.454;12.616;2022-10-16T12:15:24;1.00;;;0.70;;
7545;SDS011;3814;51.454;12.616;2022-10-16T12:17:54;0.95;;;0.60;;
7545;SDS011;3814;51.454;12.616;2022-10-16T12:20:30;0.65;;;0.60;;
7545;SDS011;3814;51.454;12.616;2022-10-16T12:25:31;1.10;;;0.80;;
7545;SDS011;3814;51.454;12.616;2022-10-16T12:28:05;1.15;;;0.60;;
7545;SDS011;3814;51.454;12.616;2022-10-16T12:30:32;2.30;;;0.70;;
7545;SDS011;3814;51.454;12.616;2022-10-16T12:33:00;1.33;;;0.60;;
7545;SDS011;3814;51.454;12.616;2022-10-16T12:35:32;0.95;;;0.80;;
7545;SDS011;3814;51.454;12.616;2022-10-16T12:38:14;1.10;;;0.70;;
7545;SDS011;3814;51.454;12.616;2022-10-16T12:40:44;1.30;;;0.60;;
7545;SDS011;3814;51.454;12.616;2022-10-16T12:45:44;1.95;;;0.70;;
7545;SDS011;3814;51.454;12.616;2022-10-16T12:48:18;2.85;;;0.70;;
7545;SDS011;3814;51.454;12.616;2022-10-16T12:50:45;0.98;;;0.70;;
7545;SDS011;3814;51.454;12.616;2022-10-16T12:53:21;1.52;;;0.80;;
7545;SDS011;3814;51.454;12.616;2022-10-16T12:56:10;1.30;;;0.90;;
7545;SDS011;3814;51.454;12.616;2022-10-16T12:58:52;3.17;;;2.13;;
7545;SDS011;3814;51.454;12.616;2022-10-16T13:04:27;1.30;;;0.90;;
7545;SDS011;3814;51.454;12.616;2022-10-16T13:07:17;3.45;;;0.90;;
7545;SDS011;3814;51.454;12.616;2022-10-16T13:12:57;0.95;;;0.80;;
7545;SDS011;3814;51.454;12.616;2022-10-16T13:15:42;2.58;;;0.90;;
7545;SDS011;3814;51.454;12.616;2022-10-16T13:18:27;1.00;;;0.80;;
7545;SDS011;3814;51.454;12.616;2022-10-16T13:23:53;1.70;;;0.77;;
7545;SDS011;3814;51.454;12.616;2022-10-16T13:26:41;0.85;;;0.77;;
7545;SDS011;3814;51.454;12.616;2022-10-16T13:29:12;1.75;;;0.77;;
7545;SDS011;3814;51.454;12.616;2022-10-16T13:31:38;1.02;;;0.70;;
7545;SDS011;3814;51.454;12.616;2022-10-16T13:34:04;2.20;;;0.80;;
7545;SDS011;3814;51.454;12.616;2022-10-16T13:36:34;3.92;;;0.90;;
7545;SDS011;3814;51.454;12.616;2022-10-16T13:39:29;1.40;;;1.00;;
7545;SDS011;3814;51.454;12.616;2022-10-16T13:44:23;0.90;;;0.75;;
7545;SDS011;3814;51.454;12.616;2022-10-16T13:49:26;1.10;;;0.77;;
7545;SDS011;3814;51.454;12.616;2022-10-16T13:51:55;0.98;;;0.77;;
7545;SDS011;3814;51.454;12.616;2022-10-16T13:54:22;1.77;;;0.80;;
7545;SDS011;3814;51.454;12.616;2022-10-16T13:56:48;2.15;;;0.80;;
7545;SDS011;3814;51.454;12.616;2022-10-16T13:59:34;1.23;;;0.90;;
7545;SDS011;3814;51.454;12.616;2022-10-16T14:02:15;1.98;;;0.90;;
7545;SDS011;3814;51.454;12.616;2022-10-16T14:04:52;1.23;;;0.90;;
7545;SDS011;3814;51.454;12.616;2022-10-16T14:07:29;1.35;;;0.77;;
